sensor_id;sensor_type;location;lat;lon;timestamp;P1;durP1;ratioP1;P2;durP2;ratioP2
51332;SDS011;37417;48.118;11.734;2022-07-23T00:00:40;5.40;;;3.75;;
51332;SDS011;37417;48.118;11.734;2022-07-23T00:03:25;5.28;;;3.80;;
51332;SDS011;37417;48.118;11.734;2022-07-23T00:06:11;4.18;;;3.53;;
51332;SDS011;37417;48.118;11.734;2022-07-23T00:08:57;4.25;;;3.85;;
51332;SDS011;37417;48.118;11.734;2022-07-23T00:11:43;6.13;;;3.35;;
51332;SDS011;37417;48.118;11.734;2022-07-23T00:14:28;3.88;;;3.47;;
51332;SDS011;37417;48.118;11.734;2022-07-23T00:17:14;4.13;;;2.85;;
51332;SDS011;37417;48.118;11.734;2022-07-23T00:20:00;3.45;;;3.08;;
51332;SDS011;37417;48.118;11.734;2022-07-23T00:22:49;3.28;;;2.97;;
51332;SDS011;37417;48.118;11.734;2022-07-23T00:25:36;4.80;;;3.33;;
51332;SDS011;37417;48.118;11.734;2022-07-23T00:28:22;6.10;;;2.88;;
51332;SDS011;37417;48.118;11.734;2022-07-23T00:31:07;4.95;;;3.28;;
51332;SDS011;37417;48.118;11.734;2022-07-23T00:33:53;3.90;;;3.28;;
51332;SDS011;37417;48.118;11.734;2022-07-23T00:36:41;3.95;;;3.60;;
51332;SDS011;37417;48.118;11.734;2022-07-23T00:39:27;3.83;;;3.42;;
51332;SDS011;37417;48.118;11.734;2022-07-23T00:42:13;4.20;;;3.33;;
51332;SDS011;37417;48.118;11.734;2022-07-23T00:44:58;3.40;;;3.05;;
51332;SDS011;37417;48.118;11.734;2022-07-23T00:47:44;4.40;;;3.28;;
51332;SDS011;37417;48.118;11.734;2022-07-23T00:50:30;3.80;;;3.40;;
51332;SDS011;37417;48.118;11.734;2022-07-23T00:53:16;5.22;;;3.70;;
51332;SDS011;37417;48.118;11.734;2022-07-23T00:56:02;5.93;;;3.45;;
51332;SDS011;37417;48.118;11.734;2022-07-23T00:58:48;3.83;;;3.42;;
51332;SDS011;37417;48.118;11.734;2022-07-23T01:01:34;4.32;;;2.97;;
51332;SDS011;37417;48.118;11.734;2022-07-23T01:04:20;4.53;;;2.97;;
51332;SDS011;37417;48.118;11.734;2022-07-23T01:07:05;3.50;;;3.20;;
51332;SDS011;37417;48.118;11.734;2022-07-23T01:09:52;3.58;;;3.22;;
51332;SDS011;37417;48.118;11.734;2022-07-23T01:12:39;5.30;;;3.45;;
51332;SDS011;37417;48.118;11.734;2022-07-23T01:15:25;4.90;;;3.70;;
51332;SDS011;37417;48.118;11.734;2022-07-23T01:18:11;6.53;;;4.07;;
51332;SDS011;37417;48.118;11.734;2022-07-23T01:20:58;4.57;;;3.78;;
51332;SDS011;37417;48.118;11.734;2022-07-23T01:23:43;5.38;;;3.28;;
51332;SDS011;37417;48.118;11.734;2022-07-23T01:26:29;4.50;;;3.58;;
51332;SDS011;37417;48.118;11.734;2022-07-23T01:29:15;3.70;;;3.20;;
51332;SDS011;37417;48.118;11.734;2022-07-23T01:32:01;9.05;;;4.15;;
51332;SDS011;37417;48.118;11.734;2022-07-23T01:34:47;13.57;;;5.13;;
51332;SDS011;37417;48.118;11.734;2022-07-23T01:37:32;10.45;;;4.18;;
51332;SDS011;37417;48.118;11.734;2022-07-23T01:40:18;33.20;;;5.82;;
51332;SDS011;37417;48.118;11.734;2022-07-23T01:43:04;23.58;;;6.25;;
51332;SDS011;37417;48.118;11.734;2022-07-23T01:45:50;12.40;;;4.85;;
51332;SDS011;37417;48.118;11.734;2022-07-23T01:48:35;25.60;;;4.20;;
51332;SDS011;37417;48.118;11.734;2022-07-23T01:51:21;10.20;;;3.10;;
51332;SDS011;37417;48.118;11.734;2022-07-23T01:54:07;13.02;;;2.88;;
51332;SDS011;37417;48.118;11.734;2022-07-23T01:56:52;8.32;;;2.03;;
51332;SDS011;37417;48.118;11.734;2022-07-23T01:59:38;6.57;;;2.47;;
51332;SDS011;37417;48.118;11.734;2022-07-23T02:02:24;4.47;;;1.67;;
51332;SDS011;37417;48.118;11.734;2022-07-23T02:05:10;2.13;;;1.77;;
51332;SDS011;37417;48.118;11.734;2022-07-23T02:07:56;2.78;;;2.05;;
51332;SDS011;37417;48.118;11.734;2022-07-23T02:10:42;2.15;;;1.85;;
51332;SDS011;37417;48.118;11.734;2022-07-23T02:13:28;4.10;;;1.80;;
51332;SDS011;37417;48.118;11.734;2022-07-23T02:16:14;4.53;;;2.20;;
51332;SDS011;37417;48.118;11.734;2022-07-23T02:19:00;2.67;;;1.88;;
51332;SDS011;37417;48.118;11.734;2022-07-23T02:21:46;2.08;;;1.88;;
51332;SDS011;37417;48.118;11.734;2022-07-23T02:24:32;3.35;;;1.92;;
51332;SDS011;37417;48.118;11.734;2022-07-23T02:27:17;1.73;;;1.60;;
51332;SDS011;37417;48.118;11.734;2022-07-23T02:30:03;1.73;;;1.63;;
51332;SDS011;37417;48.118;11.734;2022-07-23T02:32:50;5.38;;;2.15;;
51332;SDS011;37417;48.118;11.734;2022-07-23T02:35:35;2.40;;;2.00;;
51332;SDS011;37417;48.118;11.734;2022-07-23T02:38:21;1.98;;;1.80;;
51332;SDS011;37417;48.118;11.734;2022-07-23T02:41:07;2.53;;;1.33;;
51332;SDS011;37417;48.118;11.734;2022-07-23T02:43:52;1.75;;;1.55;;
51332;SDS011;37417;48.118;11.734;2022-07-23T02:46:38;2.00;;;1.73;;
51332;SDS011;37417;48.118;11.734;2022-07-23T02:49:24;1.77;;;1.30;;
51332;SDS011;37417;48.118;11.734;2022-07-23T02:52:09;2.47;;;1.80;;
51332;SDS011;37417;48.118;11.734;2022-07-23T02:54:58;2.03;;;1.20;;
51332;SDS011;37417;48.118;11.734;2022-07-23T02:57:43;1.85;;;1.55;;
51332;SDS011;37417;48.118;11.734;2022-07-23T03:00:29;3.42;;;1.65;;
51332;SDS011;37417;48.118;11.734;2022-07-23T03:03:15;2.95;;;1.75;;
51332;SDS011;37417;48.118;11.734;2022-07-23T03:06:00;2.15;;;1.75;;
51332;SDS011;37417;48.118;11.734;2022-07-23T03:08:46;1.85;;;1.60;;
51332;SDS011;37417;48.118;11.734;2022-07-23T03:11:32;3.58;;;1.75;;
51332;SDS011;37417;48.118;11.734;2022-07-23T03:14:17;2.67;;;1.70;;
51332;SDS011;37417;48.118;11.734;2022-07-23T03:17:03;2.85;;;2.08;;
51332;SDS011;37417;48.118;11.734;2022-07-23T03:19:48;2.53;;;1.85;;
51332;SDS011;37417;48.118;11.734;2022-07-23T03:22:34;3.05;;;2.20;;
51332;SDS011;37417;48.118;11.734;2022-07-23T03:25:20;5.70;;;2.55;;
51332;SDS011;37417;48.118;11.734;2022-07-23T03:28:05;5.22;;;2.63;;
51332;SDS011;37417;48.118;11.734;2022-07-23T03:30:51;3.40;;;2.38;;
51332;SDS011;37417;48.118;11.734;2022-07-23T03:33:37;3.20;;;2.90;;
51332;SDS011;37417;48.118;11.734;2022-07-23T03:36:22;4.90;;;2.90;;
51332;SDS011;37417;48.118;11.734;2022-07-23T03:39:08;3.33;;;2.58;;
51332;SDS011;37417;48.118;11.734;2022-07-23T03:41:54;4.32;;;2.63;;
51332;SDS011;37417;48.118;11.734;2022-07-23T03:44:39;3.10;;;2.65;;
51332;SDS011;37417;48.118;11.734;2022-07-23T03:47:25;5.40;;;3.47;;
51332;SDS011;37417;48.118;11.734;2022-07-23T03:50:11;4.18;;;3.35;;
51332;SDS011;37417;48.118;11.734;2022-07-23T03:52:56;3.95;;;2.97;;
51332;SDS011;37417;48.118;11.734;2022-07-23T03:55:42;5.00;;;3.33;;
51332;SDS011;37417;48.118;11.734;2022-07-23T03:58:28;5.03;;;2.75;;
51332;SDS011;37417;48.118;11.734;2022-07-23T04:01:13;4.00;;;3.42;;
51332;SDS011;37417;48.118;11.734;2022-07-23T04:03:59;5.45;;;3.97;;
51332;SDS011;37417;48.118;11.734;2022-07-23T04:06:45;4.03;;;3.63;;
51332;SDS011;37417;48.118;11.734;2022-07-23T04:09:30;3.70;;;3.30;;
51332;SDS011;37417;48.118;11.734;2022-07-23T04:12:16;4.00;;;3.60;;
51332;SDS011;37417;48.118;11.734;2022-07-23T04:15:02;5.20;;;3.05;;
51332;SDS011;37417;48.118;11.734;2022-07-23T04:17:48;4.57;;;3.60;;
51332;SDS011;37417;48.118;11.734;2022-07-23T04:20:34;4.97;;;3.05;;
51332;SDS011;37417;48.118;11.734;2022-07-23T04:23:19;4.88;;;3.17;;
51332;SDS011;37417;48.118;11.734;2022-07-23T04:26:05;9.00;;;3.95;;
51332;SDS011;37417;48.118;11.734;2022-07-23T04:28:50;5.15;;;3.42;;
51332;SDS011;37417;48.118;11.734;2022-07-23T04:31:36;3.38;;;3.08;;
51332;SDS011;37417;48.118;11.734;2022-07-23T04:34:22;4.38;;;3.35;;
51332;SDS011;37417;48.118;11.734;2022-07-23T04:37:08;3.88;;;3.30;;
51332;SDS011;37417;48.118;11.734;2022-07-23T04:39:53;3.97;;;3.58;;
51332;SDS011;37417;48.118;11.734;2022-07-23T04:42:39;4.22;;;3.40;;
51332;SDS011;37417;48.118;11.734;2022-07-23T04:45:25;4.40;;;3.47;;
51332;SDS011;37417;48.118;11.734;2022-07-23T04:48:11;5.15;;;3.90;;
51332;SDS011;37417;48.118;11.734;2022-07-23T04:50:56;4.53;;;3.65;;
51332;SDS011;37417;48.118;11.734;2022-07-23T04:53:42;6.07;;;3.80;;
51332;SDS011;37417;48.118;11.734;2022-07-23T04:56:28;6.32;;;3.60;;
51332;SDS011;37417;48.118;11.734;2022-07-23T04:59:13;3.72;;;3.25;;
51332;SDS011;37417;48.118;11.734;2022-07-23T05:01:59;4.22;;;3.20;;
51332;SDS011;37417;48.118;11.734;2022-07-23T05:04:45;5.22;;;3.88;;
51332;SDS011;37417;48.118;11.734;2022-07-23T05:07:30;4.82;;;3.63;;
51332;SDS011;37417;48.118;11.734;2022-07-23T05:10:16;6.72;;;3.88;;
51332;SDS011;37417;48.118;11.734;2022-07-23T05:13:02;4.45;;;3.65;;
51332;SDS011;37417;48.118;11.734;2022-07-23T05:15:48;6.22;;;3.40;;
51332;SDS011;37417;48.118;11.734;2022-07-23T05:18:33;4.20;;;3.80;;
51332;SDS011;37417;48.118;11.734;2022-07-23T05:21:19;6.35;;;3.53;;
51332;SDS011;37417;48.118;11.734;2022-07-23T05:24:05;4.22;;;3.70;;
51332;SDS011;37417;48.118;11.734;2022-07-23T05:26:51;3.50;;;3.20;;
51332;SDS011;37417;48.118;11.734;2022-07-23T05:29:37;4.20;;;3.40;;
51332;SDS011;37417;48.118;11.734;2022-07-23T05:32:22;3.35;;;3.05;;
51332;SDS011;37417;48.118;11.734;2022-07-23T05:35:08;4.03;;;3.60;;
51332;SDS011;37417;48.118;11.734;2022-07-23T05:37:54;3.50;;;3.15;;
51332;SDS011;37417;48.118;11.734;2022-07-23T05:40:39;4.10;;;3.20;;
51332;SDS011;37417;48.118;11.734;2022-07-23T05:43:25;3.78;;;3.38;;
51332;SDS011;37417;48.118;11.734;2022-07-23T05:46:11;3.58;;;2.80;;
51332;SDS011;37417;48.118;11.734;2022-07-23T05:48:57;4.30;;;3.38;;
51332;SDS011;37417;48.118;11.734;2022-07-23T05:51:42;4.38;;;3.50;;
51332;SDS011;37417;48.118;11.734;2022-07-23T05:54:28;5.43;;;3.42;;
51332;SDS011;37417;48.118;11.734;2022-07-23T05:57:14;4.70;;;3.45;;
51332;SDS011;37417;48.118;11.734;2022-07-23T05:59:59;5.60;;;3.53;;
51332;SDS011;37417;48.118;11.734;2022-07-23T06:02:45;4.38;;;3.55;;
51332;SDS011;37417;48.118;11.734;2022-07-23T06:05:31;3.15;;;2.85;;
51332;SDS011;37417;48.118;11.734;2022-07-23T06:08:17;3.25;;;2.90;;
51332;SDS011;37417;48.118;11.734;2022-07-23T06:11:03;4.72;;;3.45;;
51332;SDS011;37417;48.118;11.734;2022-07-23T06:13:48;4.50;;;3.65;;
51332;SDS011;37417;48.118;11.734;2022-07-23T06:16:34;4.35;;;3.20;;
51332;SDS011;37417;48.118;11.734;2022-07-23T06:19:20;3.78;;;3.47;;
51332;SDS011;37417;48.118;11.734;2022-07-23T06:22:05;7.05;;;3.70;;
51332;SDS011;37417;48.118;11.734;2022-07-23T06:24:51;5.45;;;4.10;;
51332;SDS011;37417;48.118;11.734;2022-07-23T06:27:37;4.30;;;3.40;;
51332;SDS011;37417;48.118;11.734;2022-07-23T06:30:22;4.18;;;3.78;;
51332;SDS011;37417;48.118;11.734;2022-07-23T06:33:08;4.85;;;3.58;;
51332;SDS011;37417;48.118;11.734;2022-07-23T06:35:54;7.53;;;4.07;;
51332;SDS011;37417;48.118;11.734;2022-07-23T06:38:40;6.60;;;4.20;;
51332;SDS011;37417;48.118;11.734;2022-07-23T06:41:26;5.55;;;4.13;;
51332;SDS011;37417;48.118;11.734;2022-07-23T06:44:11;8.50;;;3.78;;
51332;SDS011;37417;48.118;11.734;2022-07-23T06:46:57;4.90;;;4.38;;
51332;SDS011;37417;48.118;11.734;2022-07-23T06:49:43;4.40;;;4.00;;
51332;SDS011;37417;48.118;11.734;2022-07-23T06:52:28;6.10;;;4.57;;
51332;SDS011;37417;48.118;11.734;2022-07-23T06:55:14;4.47;;;4.00;;
51332;SDS011;37417;48.118;11.734;2022-07-23T06:58:00;5.15;;;4.22;;
51332;SDS011;37417;48.118;11.734;2022-07-23T07:00:45;4.30;;;4.00;;
51332;SDS011;37417;48.118;11.734;2022-07-23T07:03:31;3.40;;;3.10;;
51332;SDS011;37417;48.118;11.734;2022-07-23T07:06:17;4.28;;;3.42;;
51332;SDS011;37417;48.118;11.734;2022-07-23T07:09:03;5.97;;;3.90;;
51332;SDS011;37417;48.118;11.734;2022-07-23T07:11:49;6.63;;;4.20;;
51332;SDS011;37417;48.118;11.734;2022-07-23T07:14:34;7.07;;;3.75;;
51332;SDS011;37417;48.118;11.734;2022-07-23T07:17:20;4.25;;;3.72;;
51332;SDS011;37417;48.118;11.734;2022-07-23T07:20:06;4.15;;;3.33;;
51332;SDS011;37417;48.118;11.734;2022-07-23T07:22:52;4.57;;;3.55;;
51332;SDS011;37417;48.118;11.734;2022-07-23T07:25:38;5.03;;;3.50;;
51332;SDS011;37417;48.118;11.734;2022-07-23T07:28:23;4.38;;;3.08;;
51332;SDS011;37417;48.118;11.734;2022-07-23T07:31:09;5.05;;;3.88;;
51332;SDS011;37417;48.118;11.734;2022-07-23T07:33:55;3.63;;;3.00;;
51332;SDS011;37417;48.118;11.734;2022-07-23T07:36:41;6.15;;;4.00;;
51332;SDS011;37417;48.118;11.734;2022-07-23T07:39:28;3.92;;;3.58;;
51332;SDS011;37417;48.118;11.734;2022-07-23T07:42:14;4.15;;;3.72;;
51332;SDS011;37417;48.118;11.734;2022-07-23T07:45:00;5.30;;;3.63;;
51332;SDS011;37417;48.118;11.734;2022-07-23T07:47:46;4.75;;;3.80;;
51332;SDS011;37417;48.118;11.734;2022-07-23T07:50:32;4.65;;;4.07;;
51332;SDS011;37417;48.118;11.734;2022-07-23T07:53:18;4.60;;;4.00;;
51332;SDS011;37417;48.118;11.734;2022-07-23T07:56:04;4.20;;;3.78;;
51332;SDS011;37417;48.118;11.734;2022-07-23T07:58:50;4.13;;;3.72;;
51332;SDS011;37417;48.118;11.734;2022-07-23T08:01:35;4.78;;;3.92;;
51332;SDS011;37417;48.118;11.734;2022-07-23T08:04:21;4.45;;;4.07;;
51332;SDS011;37417;48.118;11.734;2022-07-23T08:07:06;4.35;;;3.67;;
51332;SDS011;37417;48.118;11.734;2022-07-23T08:09:52;6.50;;;4.13;;
51332;SDS011;37417;48.118;11.734;2022-07-23T08:12:44;4.65;;;4.15;;
51332;SDS011;37417;48.118;11.734;2022-07-23T08:15:31;4.25;;;3.85;;
51332;SDS011;37417;48.118;11.734;2022-07-23T08:18:17;5.90;;;4.35;;
51332;SDS011;37417;48.118;11.734;2022-07-23T08:21:03;6.05;;;3.78;;
51332;SDS011;37417;48.118;11.734;2022-07-23T08:23:52;4.63;;;3.63;;
51332;SDS011;37417;48.118;11.734;2022-07-23T08:26:37;5.40;;;4.00;;
51332;SDS011;37417;48.118;11.734;2022-07-23T08:29:23;4.47;;;4.03;;
51332;SDS011;37417;48.118;11.734;2022-07-23T08:32:09;5.78;;;4.15;;
51332;SDS011;37417;48.118;11.734;2022-07-23T08:34:54;4.90;;;3.92;;
51332;SDS011;37417;48.118;11.734;2022-07-23T08:37:40;5.32;;;3.85;;
51332;SDS011;37417;48.118;11.734;2022-07-23T08:40:26;4.70;;;4.30;;
51332;SDS011;37417;48.118;11.734;2022-07-23T08:43:15;5.75;;;4.07;;
51332;SDS011;37417;48.118;11.734;2022-07-23T08:46:03;4.60;;;3.70;;
51332;SDS011;37417;48.118;11.734;2022-07-23T08:48:49;5.97;;;3.80;;
51332;SDS011;37417;48.118;11.734;2022-07-23T08:51:35;3.95;;;3.53;;
51332;SDS011;37417;48.118;11.734;2022-07-23T08:54:21;6.72;;;4.50;;
51332;SDS011;37417;48.118;11.734;2022-07-23T08:57:07;4.05;;;3.60;;
51332;SDS011;37417;48.118;11.734;2022-07-23T08:59:53;6.13;;;3.92;;
51332;SDS011;37417;48.118;11.734;2022-07-23T09:02:42;4.18;;;3.78;;
51332;SDS011;37417;48.118;11.734;2022-07-23T09:05:29;4.23;;;3.83;;
51332;SDS011;37417;48.118;11.734;2022-07-23T09:08:16;6.68;;;3.63;;
51332;SDS011;37417;48.118;11.734;2022-07-23T09:11:04;4.65;;;3.72;;
51332;SDS011;37417;48.118;11.734;2022-07-23T09:13:54;3.78;;;3.42;;
51332;SDS011;37417;48.118;11.734;2022-07-23T09:16:43;4.35;;;3.95;;
51332;SDS011;37417;48.118;11.734;2022-07-23T09:19:29;5.45;;;4.30;;
51332;SDS011;37417;48.118;11.734;2022-07-23T09:22:18;5.95;;;3.55;;
51332;SDS011;37417;48.118;11.734;2022-07-23T09:25:10;4.60;;;3.35;;
51332;SDS011;37417;48.118;11.734;2022-07-23T09:27:59;4.47;;;3.88;;
51332;SDS011;37417;48.118;11.734;2022-07-23T09:30:48;6.15;;;3.97;;
51332;SDS011;37417;48.118;11.734;2022-07-23T09:33:36;5.78;;;3.33;;
51332;SDS011;37417;48.118;11.734;2022-07-23T09:36:28;3.72;;;3.42;;
51332;SDS011;37417;48.118;11.734;2022-07-23T09:39:16;4.70;;;3.70;;
51332;SDS011;37417;48.118;11.734;2022-07-23T09:45:02;4.60;;;3.67;;
51332;SDS011;37417;48.118;11.734;2022-07-23T09:47:48;4.55;;;3.47;;
51332;SDS011;37417;48.118;11.734;2022-07-23T09:50:33;3.70;;;3.20;;
51332;SDS011;37417;48.118;11.734;2022-07-23T09:53:25;3.50;;;3.20;;
51332;SDS011;37417;48.118;11.734;2022-07-23T09:56:11;4.00;;;3.70;;
51332;SDS011;37417;48.118;11.734;2022-07-23T09:59:00;3.60;;;2.95;;
51332;SDS011;37417;48.118;11.734;2022-07-23T10:01:57;3.55;;;2.90;;
51332;SDS011;37417;48.118;11.734;2022-07-23T10:04:44;4.28;;;3.30;;
51332;SDS011;37417;48.118;11.734;2022-07-23T10:07:31;4.10;;;3.15;;
51332;SDS011;37417;48.118;11.734;2022-07-23T10:10:20;5.50;;;3.42;;
51332;SDS011;37417;48.118;11.734;2022-07-23T10:13:07;5.90;;;3.13;;
51332;SDS011;37417;48.118;11.734;2022-07-23T10:15:57;4.15;;;3.10;;
51332;SDS011;37417;48.118;11.734;2022-07-23T10:18:43;4.80;;;3.15;;
51332;SDS011;37417;48.118;11.734;2022-07-23T10:33:30;5.13;;;3.45;;
51332;SDS011;37417;48.118;11.734;2022-07-23T10:36:40;3.95;;;2.97;;
51332;SDS011;37417;48.118;11.734;2022-07-23T10:39:31;4.45;;;3.10;;
51332;SDS011;37417;48.118;11.734;2022-07-23T10:45:26;2.97;;;2.67;;
51332;SDS011;37417;48.118;11.734;2022-07-23T10:48:26;5.53;;;3.20;;
51332;SDS011;37417;48.118;11.734;2022-07-23T10:51:13;3.13;;;2.83;;
51332;SDS011;37417;48.118;11.734;2022-07-23T10:54:00;5.32;;;3.40;;
51332;SDS011;37417;48.118;11.734;2022-07-23T11:02:47;6.75;;;3.20;;
51332;SDS011;37417;48.118;11.734;2022-07-23T11:05:41;5.20;;;3.08;;
51332;SDS011;37417;48.118;11.734;2022-07-23T11:08:28;4.50;;;3.28;;
51332;SDS011;37417;48.118;11.734;2022-07-23T11:11:14;5.22;;;2.63;;
51332;SDS011;37417;48.118;11.734;2022-07-23T11:13:59;5.80;;;3.13;;
51332;SDS011;37417;48.118;11.734;2022-07-23T11:16:46;2.65;;;2.45;;
51332;SDS011;37417;48.118;11.734;2022-07-23T11:19:50;2.47;;;2.25;;
51332;SDS011;37417;48.118;11.734;2022-07-23T11:22:57;4.28;;;3.00;;
51332;SDS011;37417;48.118;11.734;2022-07-23T11:25:44;8.55;;;3.00;;
51332;SDS011;37417;48.118;11.734;2022-07-23T11:28:29;3.88;;;2.88;;
51332;SDS011;37417;48.118;11.734;2022-07-23T11:31:18;8.10;;;2.97;;
51332;SDS011;37417;48.118;11.734;2022-07-23T11:40:21;3.03;;;2.80;;
51332;SDS011;37417;48.118;11.734;2022-07-23T11:43:08;2.72;;;2.13;;
51332;SDS011;37417;48.118;11.734;2022-07-23T11:45:58;3.58;;;2.90;;
51332;SDS011;37417;48.118;11.734;2022-07-23T11:48:45;3.30;;;3.00;;
51332;SDS011;37417;48.118;11.734;2022-07-23T11:51:31;3.10;;;2.70;;
51332;SDS011;37417;48.118;11.734;2022-07-23T11:54:18;3.15;;;2.40;;
51332;SDS011;37417;48.118;11.734;2022-07-23T11:57:03;4.75;;;3.10;;
51332;SDS011;37417;48.118;11.734;2022-07-23T11:59:51;5.60;;;3.00;;
51332;SDS011;37417;48.118;11.734;2022-07-23T12:02:40;3.92;;;3.03;;
51332;SDS011;37417;48.118;11.734;2022-07-23T12:05:29;4.05;;;3.38;;
51332;SDS011;37417;48.118;11.734;2022-07-23T12:08:16;4.43;;;3.20;;
51332;SDS011;37417;48.118;11.734;2022-07-23T12:11:02;5.45;;;2.90;;
51332;SDS011;37417;48.118;11.734;2022-07-23T12:13:55;3.78;;;3.30;;
51332;SDS011;37417;48.118;11.734;2022-07-23T12:16:41;5.32;;;3.75;;
51332;SDS011;37417;48.118;11.734;2022-07-23T12:19:27;3.55;;;3.10;;
51332;SDS011;37417;48.118;11.734;2022-07-23T12:22:13;5.07;;;2.95;;
51332;SDS011;37417;48.118;11.734;2022-07-23T12:25:03;5.28;;;3.30;;
51332;SDS011;37417;48.118;11.734;2022-07-23T12:27:58;4.20;;;3.20;;
51332;SDS011;37417;48.118;11.734;2022-07-23T12:30:50;6.93;;;3.65;;
51332;SDS011;37417;48.118;11.734;2022-07-23T12:33:38;9.77;;;3.60;;
51332;SDS011;37417;48.118;11.734;2022-07-23T12:36:24;8.13;;;2.95;;
51332;SDS011;37417;48.118;11.734;2022-07-23T12:39:33;4.93;;;3.20;;
51332;SDS011;37417;48.118;11.734;2022-07-23T12:42:19;3.47;;;2.65;;
51332;SDS011;37417;48.118;11.734;2022-07-23T12:45:11;3.70;;;3.30;;
51332;SDS011;37417;48.118;11.734;2022-07-23T12:47:58;4.80;;;3.47;;
51332;SDS011;37417;48.118;11.734;2022-07-23T12:50:51;6.63;;;3.25;;
51332;SDS011;37417;48.118;11.734;2022-07-23T12:53:39;4.32;;;3.13;;
51332;SDS011;37417;48.118;11.734;2022-07-23T12:56:32;7.03;;;3.20;;
51332;SDS011;37417;48.118;11.734;2022-07-23T12:59:22;4.80;;;3.42;;
51332;SDS011;37417;48.118;11.734;2022-07-23T13:02:08;4.13;;;3.17;;
51332;SDS011;37417;48.118;11.734;2022-07-23T13:04:54;4.45;;;4.05;;
51332;SDS011;37417;48.118;11.734;2022-07-23T13:07:40;6.93;;;3.15;;
51332;SDS011;37417;48.118;11.734;2022-07-23T13:10:26;3.60;;;3.30;;
51332;SDS011;37417;48.118;11.734;2022-07-23T13:13:12;5.60;;;3.50;;
51332;SDS011;37417;48.118;11.734;2022-07-23T13:15:59;5.30;;;3.30;;
51332;SDS011;37417;48.118;11.734;2022-07-23T13:18:45;3.63;;;3.10;;
51332;SDS011;37417;48.118;11.734;2022-07-23T13:21:30;7.32;;;3.72;;
51332;SDS011;37417;48.118;11.734;2022-07-23T13:24:16;4.63;;;4.22;;
51332;SDS011;37417;48.118;11.734;2022-07-23T13:27:02;10.38;;;3.25;;
51332;SDS011;37417;48.118;11.734;2022-07-23T13:29:48;3.42;;;3.10;;
51332;SDS011;37417;48.118;11.734;2022-07-23T13:32:34;4.15;;;2.95;;
51332;SDS011;37417;48.118;11.734;2022-07-23T13:35:20;6.07;;;3.25;;
51332;SDS011;37417;48.118;11.734;2022-07-23T13:38:06;7.18;;;3.78;;
51332;SDS011;37417;48.118;11.734;2022-07-23T13:40:54;4.63;;;2.92;;
51332;SDS011;37417;48.118;11.734;2022-07-23T13:43:40;9.27;;;3.95;;
51332;SDS011;37417;48.118;11.734;2022-07-23T13:46:26;7.55;;;3.75;;
51332;SDS011;37417;48.118;11.734;2022-07-23T13:49:12;4.03;;;3.63;;
51332;SDS011;37417;48.118;11.734;2022-07-23T13:51:57;4.43;;;3.22;;
51332;SDS011;37417;48.118;11.734;2022-07-23T13:54:43;4.25;;;3.55;;
51332;SDS011;37417;48.118;11.734;2022-07-23T13:57:29;4.53;;;3.88;;
51332;SDS011;37417;48.118;11.734;2022-07-23T14:00:16;6.13;;;3.45;;
51332;SDS011;37417;48.118;11.734;2022-07-23T14:03:02;4.10;;;3.38;;
51332;SDS011;37417;48.118;11.734;2022-07-23T14:05:48;3.70;;;3.30;;
51332;SDS011;37417;48.118;11.734;2022-07-23T14:08:34;6.35;;;4.18;;
51332;SDS011;37417;48.118;11.734;2022-07-23T14:11:20;4.07;;;3.38;;
51332;SDS011;37417;48.118;11.734;2022-07-23T14:14:06;8.77;;;3.90;;
51332;SDS011;37417;48.118;11.734;2022-07-23T14:16:51;5.43;;;3.05;;
51332;SDS011;37417;48.118;11.734;2022-07-23T14:19:37;3.95;;;3.20;;
51332;SDS011;37417;48.118;11.734;2022-07-23T14:22:23;4.57;;;3.05;;
51332;SDS011;37417;48.118;11.734;2022-07-23T14:25:09;3.65;;;3.25;;
51332;SDS011;37417;48.118;11.734;2022-07-23T14:27:55;4.53;;;3.42;;
51332;SDS011;37417;48.118;11.734;2022-07-23T14:30:41;6.07;;;3.50;;
51332;SDS011;37417;48.118;11.734;2022-07-23T14:33:28;4.38;;;3.47;;
51332;SDS011;37417;48.118;11.734;2022-07-23T14:36:14;4.05;;;3.50;;
51332;SDS011;37417;48.118;11.734;2022-07-23T14:39:00;7.97;;;3.42;;
51332;SDS011;37417;48.118;11.734;2022-07-23T14:41:46;4.47;;;3.80;;
51332;SDS011;37417;48.118;11.734;2022-07-23T14:44:32;4.32;;;3.78;;
51332;SDS011;37417;48.118;11.734;2022-07-23T14:47:18;4.15;;;3.63;;
51332;SDS011;37417;48.118;11.734;2022-07-23T14:50:04;8.63;;;4.97;;
51332;SDS011;37417;48.118;11.734;2022-07-23T14:52:50;7.10;;;3.55;;
51332;SDS011;37417;48.118;11.734;2022-07-23T14:55:36;4.78;;;3.50;;
51332;SDS011;37417;48.118;11.734;2022-07-23T14:58:21;10.77;;;3.17;;
51332;SDS011;37417;48.118;11.734;2022-07-23T15:01:08;5.25;;;2.95;;
51332;SDS011;37417;48.118;11.734;2022-07-23T15:03:54;4.15;;;3.75;;
51332;SDS011;37417;48.118;11.734;2022-07-23T15:06:39;3.65;;;3.35;;
51332;SDS011;37417;48.118;11.734;2022-07-23T15:09:25;3.30;;;3.00;;
51332;SDS011;37417;48.118;11.734;2022-07-23T15:12:11;4.70;;;3.40;;
51332;SDS011;37417;48.118;11.734;2022-07-23T15:14:56;3.92;;;3.55;;
51332;SDS011;37417;48.118;11.734;2022-07-23T15:17:42;4.60;;;3.15;;
51332;SDS011;37417;48.118;11.734;2022-07-23T15:20:28;4.65;;;3.55;;
51332;SDS011;37417;48.118;11.734;2022-07-23T15:23:13;3.75;;;3.40;;
51332;SDS011;37417;48.118;11.734;2022-07-23T15:25:59;3.95;;;3.47;;
51332;SDS011;37417;48.118;11.734;2022-07-23T15:28:45;5.63;;;3.28;;
51332;SDS011;37417;48.118;11.734;2022-07-23T15:31:30;3.88;;;3.58;;
51332;SDS011;37417;48.118;11.734;2022-07-23T15:34:16;5.72;;;3.65;;
51332;SDS011;37417;48.118;11.734;2022-07-23T15:37:02;4.32;;;3.65;;
51332;SDS011;37417;48.118;11.734;2022-07-23T15:39:50;6.45;;;3.90;;
51332;SDS011;37417;48.118;11.734;2022-07-23T15:42:36;3.33;;;3.03;;
51332;SDS011;37417;48.118;11.734;2022-07-23T15:45:22;4.43;;;3.45;;
51332;SDS011;37417;48.118;11.734;2022-07-23T15:48:08;3.92;;;3.60;;
51332;SDS011;37417;48.118;11.734;2022-07-23T15:50:53;6.25;;;3.60;;
51332;SDS011;37417;48.118;11.734;2022-07-23T15:53:39;6.20;;;4.13;;
51332;SDS011;37417;48.118;11.734;2022-07-23T15:56:25;6.85;;;3.78;;
51332;SDS011;37417;48.118;11.734;2022-07-23T15:59:10;5.75;;;4.03;;
51332;SDS011;37417;48.118;11.734;2022-07-23T16:01:56;4.72;;;3.88;;
51332;SDS011;37417;48.118;11.734;2022-07-23T16:04:42;4.15;;;3.75;;
51332;SDS011;37417;48.118;11.734;2022-07-23T16:07:28;6.00;;;4.65;;
51332;SDS011;37417;48.118;11.734;2022-07-23T16:10:13;6.05;;;4.03;;
51332;SDS011;37417;48.118;11.734;2022-07-23T16:12:59;5.40;;;4.50;;
51332;SDS011;37417;48.118;11.734;2022-07-23T16:15:45;4.95;;;3.85;;
51332;SDS011;37417;48.118;11.734;2022-07-23T16:18:31;4.75;;;3.45;;
51332;SDS011;37417;48.118;11.734;2022-07-23T16:21:17;4.15;;;3.75;;
51332;SDS011;37417;48.118;11.734;2022-07-23T16:24:03;5.18;;;4.10;;
51332;SDS011;37417;48.118;11.734;2022-07-23T16:26:49;7.72;;;4.25;;
51332;SDS011;37417;48.118;11.734;2022-07-23T16:29:34;5.05;;;3.70;;
51332;SDS011;37417;48.118;11.734;2022-07-23T16:32:20;6.13;;;3.63;;
51332;SDS011;37417;48.118;11.734;2022-07-23T16:35:06;3.97;;;3.67;;
51332;SDS011;37417;48.118;11.734;2022-07-23T16:37:53;7.35;;;4.20;;
51332;SDS011;37417;48.118;11.734;2022-07-23T16:40:39;4.80;;;4.40;;
51332;SDS011;37417;48.118;11.734;2022-07-23T16:43:25;5.43;;;4.50;;
51332;SDS011;37417;48.118;11.734;2022-07-23T16:46:12;7.30;;;4.85;;
51332;SDS011;37417;48.118;11.734;2022-07-23T16:48:57;4.38;;;3.67;;
51332;SDS011;37417;48.118;11.734;2022-07-23T16:51:43;5.00;;;3.70;;
51332;SDS011;37417;48.118;11.734;2022-07-23T16:54:29;6.35;;;4.38;;
51332;SDS011;37417;48.118;11.734;2022-07-23T16:57:15;4.97;;;4.07;;